createdAt,value
2018-05-13T00:00:26.528Z,0.00
2018-05-13T00:01:26.500Z,0.00
2018-05-13T00:02:26.479Z,0.00
2018-05-13T00:03:26.455Z,0.00
2018-05-13T00:04:26.428Z,0.00
2018-05-13T00:05:26.403Z,0.00
2018-05-13T00:06:26.380Z,0.00
2018-05-13T00:07:26.356Z,0.00
2018-05-13T00:08:26.336Z,0.00
2018-05-13T00:09:26.308Z,0.00
2018-05-13T00:10:26.288Z,0.00
2018-05-13T00:11:26.269Z,0.00
2018-05-13T00:12:26.238Z,0.00
2018-05-13T00:13:26.213Z,0.00
2018-05-13T00:14:26.189Z,0.00
2018-05-13T00:15:26.165Z,0.00
2018-05-13T00:16:26.142Z,0.00
2018-05-13T00:17:26.122Z,0.00
2018-05-13T00:18:26.093Z,0.00
2018-05-13T00:19:26.070Z,0.00
2018-05-13T00:20:26.047Z,0.00
2018-05-13T00:21:26.022Z,0.00
2018-05-13T00:22:26.002Z,0.00
2018-05-13T00:23:25.974Z,0.00
2018-05-13T00:24:25.950Z,0.00
2018-05-13T00:25:25.933Z,0.00
2018-05-13T00:26:25.902Z,0.00
2018-05-13T00:27:25.881Z,0.00
2018-05-13T00:28:25.855Z,0.00
2018-05-13T00:29:25.830Z,0.00
2018-05-13T00:30:25.806Z,0.00
2018-05-13T00:31:25.784Z,0.00
2018-05-13T00:32:25.759Z,0.00
2018-05-13T00:33:25.737Z,0.00
2018-05-13T00:34:25.710Z,0.00
2018-05-13T00:35:25.688Z,0.00
2018-05-13T00:36:25.663Z,0.00
2018-05-13T00:37:25.638Z,0.00
2018-05-13T00:38:25.614Z,0.00
2018-05-13T00:39:25.592Z,0.00
2018-05-13T00:40:25.567Z,0.00
2018-05-13T00:41:25.542Z,0.00
2018-05-13T00:42:25.519Z,0.00
2018-05-13T00:43:25.494Z,0.00
2018-05-13T00:44:25.470Z,0.00
2018-05-13T00:45:25.445Z,0.00
2018-05-13T00:46:25.424Z,0.00
2018-05-13T00:47:25.398Z,0.00
2018-05-13T00:48:25.374Z,0.00
2018-05-13T00:49:25.350Z,0.00
2018-05-13T00:50:25.327Z,0.00
2018-05-13T00:51:25.302Z,0.00
2018-05-13T00:52:25.278Z,0.00
2018-05-13T00:53:25.255Z,0.00
2018-05-13T00:54:25.230Z,0.00
2018-05-13T00:55:25.209Z,0.00
2018-05-13T00:56:25.187Z,0.00
2018-05-13T00:57:25.157Z,0.00
2018-05-13T00:58:25.133Z,0.00
2018-05-13T00:59:25.110Z,0.00
2018-05-13T01:00:25.092Z,0.00
2018-05-13T01:01:25.067Z,0.00
2018-05-13T01:02:25.042Z,0.00
2018-05-13T01:03:25.013Z,0.00
2018-05-13T01:04:24.993Z,0.00
2018-05-13T01:05:24.964Z,0.00
2018-05-13T01:06:24.941Z,0.00
2018-05-13T01:07:24.917Z,0.00
2018-05-13T01:08:24.903Z,0.00
2018-05-13T01:09:24.868Z,0.00
2018-05-13T01:10:24.845Z,0.00
2018-05-13T01:11:24.821Z,0.00
2018-05-13T01:12:24.802Z,0.00
2018-05-13T01:13:24.773Z,0.00
2018-05-13T01:14:24.749Z,0.00
2018-05-13T01:15:24.725Z,0.00
2018-05-13T01:16:24.702Z,0.00
2018-05-13T01:17:24.684Z,0.00
2018-05-13T01:18:24.658Z,0.00
2018-05-13T01:19:24.630Z,0.00
2018-05-13T01:20:24.606Z,0.00
2018-05-13T01:21:24.583Z,0.00
2018-05-13T01:22:24.558Z,0.00
2018-05-13T01:23:24.535Z,0.00
2018-05-13T01:24:24.511Z,0.00
2018-05-13T01:25:24.489Z,0.00
2018-05-13T01:26:24.462Z,0.00
2018-05-13T01:27:24.447Z,0.00
2018-05-13T01:28:24.419Z,0.00
2018-05-13T01:29:24.390Z,0.00
2018-05-13T01:30:24.366Z,0.00
2018-05-13T01:31:24.343Z,0.00
2018-05-13T01:32:24.320Z,0.00
2018-05-13T01:33:24.294Z,0.00
2018-05-13T01:34:24.271Z,0.00
2018-05-13T01:35:24.247Z,0.00
2018-05-13T01:36:24.224Z,0.00
2018-05-13T01:37:24.199Z,0.00
2018-05-13T01:38:24.181Z,0.00
2018-05-13T01:39:24.151Z,0.00
2018-05-13T01:40:24.128Z,0.00
2018-05-13T01:41:24.103Z,0.00
2018-05-13T01:42:24.086Z,0.00
2018-05-13T01:43:24.057Z,0.00
2018-05-13T01:44:24.036Z,0.00
2018-05-13T01:45:24.008Z,0.00
2018-05-13T01:46:23.984Z,0.00
2018-05-13T01:47:23.961Z,0.00
2018-05-13T01:48:23.936Z,0.00
2018-05-13T01:49:23.912Z,0.00
2018-05-13T01:50:23.888Z,0.00
2018-05-13T01:51:23.864Z,0.00
2018-05-13T01:52:23.841Z,0.00
2018-05-13T01:53:23.815Z,0.00
2018-05-13T01:54:23.792Z,0.00
2018-05-13T01:55:23.769Z,0.00
2018-05-13T01:56:23.747Z,0.00
2018-05-13T01:57:23.727Z,0.00
2018-05-13T01:58:23.696Z,0.00
2018-05-13T01:59:23.672Z,0.00
2018-05-13T02:00:23.656Z,0.00
2018-05-13T02:01:23.673Z,0.00
2018-05-13T02:02:23.599Z,0.00
2018-05-13T02:03:23.576Z,0.00
2018-05-13T02:04:23.552Z,0.00
2018-05-13T02:05:23.530Z,0.00
2018-05-13T02:06:23.505Z,0.00
2018-05-13T02:07:23.480Z,0.00
2018-05-13T02:08:23.459Z,0.00
2018-05-13T02:09:23.431Z,0.00
2018-05-13T02:10:23.407Z,0.00
2018-05-13T02:11:23.383Z,0.00
2018-05-13T02:12:23.360Z,0.00
2018-05-13T02:13:23.341Z,0.00
2018-05-13T02:14:23.310Z,0.00
2018-05-13T02:15:23.307Z,0.00
2018-05-13T02:16:23.262Z,0.00
2018-05-13T02:17:23.237Z,0.00
2018-05-13T02:18:23.214Z,0.00
2018-05-13T02:19:23.190Z,0.00
2018-05-13T02:20:23.167Z,0.00
2018-05-13T02:21:23.146Z,0.00
2018-05-13T02:22:23.117Z,0.00
2018-05-13T02:23:23.093Z,0.00
2018-05-13T02:24:23.070Z,0.00
2018-05-13T02:25:23.051Z,0.00
2018-05-13T02:26:23.023Z,0.00
2018-05-13T02:27:22.996Z,0.00
2018-05-13T02:28:22.972Z,0.00
2018-05-13T02:29:22.948Z,0.00
2018-05-13T02:30:22.924Z,0.00
2018-05-13T02:31:22.900Z,0.00
2018-05-13T02:32:22.879Z,0.00
2018-05-13T02:33:22.851Z,0.00
2018-05-13T02:34:22.827Z,0.00
2018-05-13T02:35:22.803Z,0.00
2018-05-13T02:36:22.832Z,0.00
2018-05-13T02:37:22.754Z,0.00
2018-05-13T02:38:22.734Z,0.00
2018-05-13T02:39:22.708Z,0.00
2018-05-13T02:40:22.683Z,0.00
2018-05-13T02:41:22.658Z,0.00
2018-05-13T02:42:22.646Z,0.00
2018-05-13T02:43:22.610Z,0.00
2018-05-13T02:44:22.586Z,0.00
2018-05-13T02:45:22.577Z,0.00
2018-05-13T02:46:22.548Z,0.00
2018-05-13T02:47:22.516Z,0.00
2018-05-13T02:48:22.490Z,0.00
2018-05-13T02:49:22.465Z,0.00
2018-05-13T02:50:22.443Z,0.00
2018-05-13T02:51:22.418Z,0.00
2018-05-13T02:52:22.393Z,0.00
2018-05-13T02:53:22.369Z,0.00
2018-05-13T02:54:22.345Z,0.00
2018-05-13T02:55:22.320Z,0.00
2018-05-13T02:56:22.301Z,0.00
2018-05-13T02:57:22.273Z,0.00
2018-05-13T02:58:22.248Z,0.00
2018-05-13T02:59:22.224Z,0.00
2018-05-13T03:00:22.201Z,0.00
2018-05-13T03:01:22.176Z,0.00
2018-05-13T03:02:22.152Z,0.00
2018-05-13T03:03:22.135Z,0.00
2018-05-13T03:04:22.104Z,0.00
2018-05-13T03:05:22.080Z,5.63
2018-05-13T03:06:22.062Z,5.63
2018-05-13T03:07:22.031Z,5.63
2018-05-13T03:08:22.007Z,5.63
2018-05-13T03:09:21.983Z,5.63
2018-05-13T03:10:21.959Z,5.63
2018-05-13T03:11:21.938Z,11.25
2018-05-13T03:12:21.909Z,11.25
2018-05-13T03:13:21.885Z,11.25
2018-05-13T03:14:21.861Z,11.25
2018-05-13T03:15:21.841Z,11.25
2018-05-13T03:16:21.813Z,16.88
2018-05-13T03:17:21.796Z,16.88
2018-05-13T03:18:21.764Z,16.88
2018-05-13T03:20:21.715Z,22.50
2018-05-13T03:21:21.691Z,22.50
2018-05-13T03:22:21.670Z,28.13
2018-05-13T03:23:21.642Z,28.13
2018-05-13T03:24:21.821Z,28.13
2018-05-13T03:25:21.593Z,33.75
2018-05-13T03:26:21.569Z,33.75
2018-05-13T03:27:21.550Z,39.38
2018-05-13T03:28:21.521Z,39.38
2018-05-13T03:29:21.502Z,39.38
2018-05-13T03:30:21.473Z,45.00
2018-05-13T03:31:21.449Z,45.00
2018-05-13T03:32:21.424Z,50.63
2018-05-13T03:33:21.399Z,45.00
2018-05-13T03:34:21.376Z,50.63
2018-05-13T03:35:21.351Z,50.63
2018-05-13T03:36:21.327Z,56.25
2018-05-13T03:37:21.306Z,56.25
2018-05-13T03:38:21.279Z,61.88
2018-05-13T03:39:21.254Z,67.50
2018-05-13T03:40:21.230Z,67.50
2018-05-13T03:41:21.205Z,73.13
2018-05-13T03:42:21.181Z,73.13
2018-05-13T03:43:21.157Z,78.75
2018-05-13T03:44:21.137Z,84.38
2018-05-13T03:45:21.108Z,90.00
2018-05-13T03:46:21.085Z,95.63
2018-05-13T03:47:21.071Z,95.63
2018-05-13T03:48:21.038Z,101.25
2018-05-13T03:49:21.012Z,106.88
2018-05-13T03:50:20.988Z,112.50
2018-05-13T03:51:20.965Z,118.13
2018-05-13T03:52:20.940Z,118.13
2018-05-13T03:53:20.915Z,123.75
2018-05-13T03:54:20.897Z,129.38
2018-05-13T03:55:20.867Z,135.00
2018-05-13T03:56:20.843Z,140.63
2018-05-13T03:57:20.829Z,140.63
2018-05-13T03:58:20.795Z,140.63
2018-05-13T03:59:20.775Z,146.25
2018-05-13T04:00:20.756Z,151.88
2018-05-13T04:01:20.734Z,163.13
2018-05-13T04:02:20.714Z,163.13
2018-05-13T04:03:20.679Z,163.13
2018-05-13T04:04:20.656Z,168.75
2018-05-13T04:05:20.627Z,168.75
2018-05-13T04:06:20.603Z,174.38
2018-05-13T04:07:20.618Z,180.00
2018-05-13T04:08:20.556Z,185.63
2018-05-13T04:09:20.531Z,196.88
2018-05-13T04:10:20.509Z,202.50
2018-05-13T04:11:20.484Z,213.75
2018-05-13T04:12:20.465Z,225.00
2018-05-13T04:13:20.442Z,230.63
2018-05-13T04:14:20.412Z,241.88
2018-05-13T04:15:20.389Z,247.50
2018-05-13T04:16:20.366Z,253.13
2018-05-13T04:17:20.343Z,258.75
2018-05-13T04:18:20.322Z,264.38
2018-05-13T04:19:20.293Z,270.00
2018-05-13T04:20:20.269Z,270.00
2018-05-13T04:21:20.248Z,275.63
2018-05-13T04:22:20.221Z,275.63
2018-05-13T04:23:20.200Z,275.63
2018-05-13T04:24:20.175Z,275.63
2018-05-13T04:25:20.153Z,275.63
2018-05-13T04:26:20.129Z,275.63
2018-05-13T04:27:20.107Z,281.25
2018-05-13T04:28:20.082Z,286.88
2018-05-13T04:29:20.055Z,286.88
2018-05-13T04:30:20.032Z,292.50
2018-05-13T04:31:20.009Z,303.75
2018-05-13T04:32:19.989Z,309.38
2018-05-13T04:33:19.966Z,315.00
2018-05-13T04:34:19.939Z,326.25
2018-05-13T04:35:19.918Z,337.50
2018-05-13T04:36:19.892Z,348.75
2018-05-13T04:37:19.866Z,354.38
2018-05-13T04:38:19.843Z,360.00
2018-05-13T04:39:19.822Z,365.63
2018-05-13T04:40:19.800Z,376.88
2018-05-13T04:41:19.772Z,382.50
2018-05-13T04:42:19.758Z,399.38
2018-05-13T04:43:19.725Z,438.75
2018-05-13T04:44:19.703Z,461.25
2018-05-13T04:45:19.678Z,472.50
2018-05-13T04:46:19.655Z,489.38
2018-05-13T04:47:19.637Z,500.63
2018-05-13T04:48:19.609Z,523.13
2018-05-13T04:49:19.585Z,540.00
2018-05-13T04:50:19.562Z,551.25
2018-05-13T04:51:19.539Z,568.13
2018-05-13T04:52:19.517Z,585.00
2018-05-13T04:53:19.492Z,607.50
2018-05-13T04:54:19.469Z,613.13
2018-05-13T04:55:19.447Z,618.75
2018-05-13T04:56:19.427Z,630.00
2018-05-13T04:57:19.400Z,652.50
2018-05-13T04:58:19.378Z,641.25
2018-05-13T04:59:19.358Z,652.50
2018-05-13T05:00:19.334Z,663.75
2018-05-13T05:01:19.310Z,675.00
2018-05-13T05:02:19.289Z,680.63
2018-05-13T05:03:19.265Z,686.25
2018-05-13T05:04:19.243Z,703.13
2018-05-13T05:05:19.221Z,720.00
2018-05-13T05:06:19.205Z,720.00
2018-05-13T05:07:19.177Z,720.00
2018-05-13T05:08:19.159Z,731.25
2018-05-13T05:09:19.144Z,742.50
2018-05-13T05:10:19.114Z,753.75
2018-05-13T05:11:19.090Z,765.00
2018-05-13T05:12:19.075Z,770.63
2018-05-13T05:13:19.047Z,776.25
2018-05-13T05:14:19.022Z,793.13
2018-05-13T05:15:19.006Z,793.13
2018-05-13T05:16:18.981Z,804.38
2018-05-13T05:17:18.957Z,826.88
2018-05-13T05:18:18.936Z,838.13
2018-05-13T05:19:18.914Z,866.25
2018-05-13T05:20:18.893Z,888.75
2018-05-13T05:21:18.871Z,911.25
2018-05-13T05:22:18.851Z,928.13
2018-05-13T05:23:18.829Z,933.75
2018-05-13T05:24:18.808Z,933.75
2018-05-13T05:25:18.787Z,933.75
2018-05-13T05:26:18.765Z,945.00
2018-05-13T05:27:18.745Z,967.50
2018-05-13T05:28:18.723Z,995.63
2018-05-13T05:29:18.701Z,1001.25
2018-05-13T05:30:18.686Z,1012.50
2018-05-13T05:31:18.659Z,1023.75
2018-05-13T05:32:18.639Z,1029.38
2018-05-13T05:33:18.626Z,1040.63
2018-05-13T05:34:18.598Z,1063.13
2018-05-13T05:35:18.579Z,1080.00
2018-05-13T05:36:18.561Z,1119.38
2018-05-13T05:37:18.535Z,1130.63
2018-05-13T05:38:18.516Z,1141.88
2018-05-13T05:39:18.495Z,1158.75
2018-05-13T05:40:18.479Z,1175.63
2018-05-13T05:41:18.454Z,1203.75
2018-05-13T05:42:18.435Z,1203.75
2018-05-13T05:43:18.413Z,1203.75
2018-05-13T05:44:18.394Z,1198.13
2018-05-13T05:45:18.373Z,1209.38
2018-05-13T05:46:18.356Z,1209.38
2018-05-13T05:47:18.335Z,1237.50
2018-05-13T05:48:18.368Z,1248.75
2018-05-13T05:49:18.293Z,1237.50
2018-05-13T05:50:18.281Z,1254.38
2018-05-13T05:51:18.254Z,1276.88
2018-05-13T05:52:18.443Z,1288.13
2018-05-13T05:53:18.217Z,1310.63
2018-05-13T05:54:18.198Z,1338.75
2018-05-13T05:55:21.000Z,1344.38
2018-05-13T05:56:18.361Z,1372.50
2018-05-13T05:57:18.136Z,1389.38
2018-05-13T05:58:18.325Z,1411.88
2018-05-13T05:59:18.102Z,1406.25
2018-05-13T06:00:18.080Z,1423.13
2018-05-13T06:01:18.060Z,1417.50
2018-05-13T06:02:18.041Z,1428.75
2018-05-13T06:03:18.115Z,1417.50
2018-05-13T06:04:18.003Z,1468.13
2018-05-13T06:05:17.987Z,1490.63
2018-05-13T06:06:17.966Z,1530.00
2018-05-13T06:07:17.947Z,1530.00
2018-05-13T06:08:17.936Z,1552.50
2018-05-13T06:09:17.909Z,1541.25
2018-05-13T06:10:17.894Z,1558.13
2018-05-13T06:11:17.875Z,1575.00
2018-05-13T06:12:17.948Z,1563.75
2018-05-13T06:13:17.838Z,1586.25
2018-05-13T06:14:17.827Z,1586.25
2018-05-13T06:15:17.827Z,1603.13
2018-05-13T06:16:17.786Z,1608.75
2018-05-13T06:17:17.766Z,1636.88
2018-05-13T06:18:17.764Z,1631.25
2018-05-13T06:19:17.763Z,1659.38
2018-05-13T06:20:17.709Z,1693.13
2018-05-13T06:21:17.893Z,1648.13
2018-05-13T06:22:17.673Z,1620.00
2018-05-13T06:23:17.857Z,1648.13
2018-05-13T06:24:17.663Z,1704.38
2018-05-13T06:25:17.660Z,1687.50
2018-05-13T06:26:17.602Z,1631.25
2018-05-13T06:27:17.584Z,1614.38
2018-05-13T06:28:17.775Z,1625.63
2018-05-13T06:29:17.550Z,1625.63
2018-05-13T06:30:17.532Z,1591.88
2018-05-13T06:31:17.514Z,1569.38
2018-05-13T06:32:17.498Z,1530.00
2018-05-13T06:33:17.480Z,1501.88
2018-05-13T06:34:17.465Z,1468.13
2018-05-13T06:35:17.446Z,1462.50
2018-05-13T06:36:17.429Z,1468.13
2018-05-13T06:37:17.411Z,1440.00
2018-05-13T06:38:17.403Z,1428.75
2018-05-13T06:39:17.382Z,1423.13
2018-05-13T06:40:17.361Z,1423.13
2018-05-13T06:41:17.348Z,1434.38
2018-05-13T06:42:17.327Z,1496.25
2018-05-13T06:43:17.312Z,1738.13
2018-05-13T06:44:17.301Z,2036.25
2018-05-13T06:45:17.332Z,2120.63
2018-05-13T06:46:17.262Z,2070.00
2018-05-13T06:47:17.256Z,2053.13
2018-05-13T06:48:17.230Z,2019.38
2018-05-13T06:49:17.220Z,2025.00
2018-05-13T06:50:17.197Z,2036.25
2018-05-13T06:51:17.243Z,2036.25
2018-05-13T06:52:17.165Z,2025.00
2018-05-13T06:53:17.148Z,2013.75
2018-05-13T06:54:17.134Z,1732.50
2018-05-13T06:55:17.116Z,1400.63
2018-05-13T06:56:17.105Z,1350.00
2018-05-13T06:57:17.088Z,1462.50
2018-05-13T06:58:17.069Z,1513.13
2018-05-13T06:59:17.053Z,1456.88
2018-05-13T07:00:17.039Z,1411.88
2018-05-13T07:01:17.025Z,1546.88
2018-05-13T07:02:17.005Z,1591.88
2018-05-13T07:03:16.989Z,1282.50
2018-05-13T07:04:16.973Z,1198.13
2018-05-13T07:05:16.961Z,1192.50
2018-05-13T07:06:16.939Z,1344.38
2018-05-13T07:07:16.930Z,1383.75
2018-05-13T07:08:16.906Z,1333.13
2018-05-13T07:09:16.892Z,1310.63
2018-05-13T07:10:16.949Z,1310.63
2018-05-13T07:11:16.855Z,1366.88
2018-05-13T07:12:16.839Z,1428.75
2018-05-13T07:13:16.824Z,1411.88
2018-05-13T07:14:16.804Z,1389.38
2018-05-13T07:15:16.787Z,1473.75
2018-05-13T07:16:16.770Z,1642.50
2018-05-13T07:17:16.804Z,2086.88
2018-05-13T07:18:16.736Z,2053.13
2018-05-13T07:19:16.721Z,1923.75
2018-05-13T07:20:16.712Z,1788.75
2018-05-13T07:21:16.685Z,1687.50
2018-05-13T07:22:16.669Z,1895.63
2018-05-13T07:23:16.658Z,2137.50
2018-05-13T07:24:16.647Z,2491.88
2018-05-13T07:25:16.625Z,2458.13
2018-05-13T07:26:16.599Z,1721.25
2018-05-13T07:27:16.583Z,2058.75
2018-05-13T07:28:16.566Z,2216.25
2018-05-13T07:29:16.595Z,2424.38
2018-05-13T07:30:16.534Z,1974.38
2018-05-13T07:31:16.520Z,2154.38
2018-05-13T07:32:16.502Z,2531.25
2018-05-13T07:33:16.485Z,2520.00
2018-05-13T07:34:16.469Z,2525.63
2018-05-13T07:35:16.453Z,2542.50
2018-05-13T07:36:16.437Z,2576.25
2018-05-13T07:37:16.428Z,2553.75
2018-05-13T07:38:16.409Z,2593.13
2018-05-13T07:39:16.391Z,2548.13
2018-05-13T07:40:16.579Z,2576.25
2018-05-13T07:41:16.360Z,2598.75
2018-05-13T07:42:16.348Z,2643.75
2018-05-13T07:43:16.399Z,2643.75
2018-05-13T07:44:16.316Z,2683.13
2018-05-13T07:45:16.301Z,2643.75
2018-05-13T07:46:16.286Z,2508.75
2018-05-13T07:47:16.273Z,2548.13
2018-05-13T07:48:16.258Z,2553.75
2018-05-13T07:49:16.243Z,2581.88
2018-05-13T07:50:16.431Z,2559.38
2018-05-13T07:51:16.417Z,2598.75
2018-05-13T07:52:16.202Z,2649.38
2018-05-13T07:53:16.390Z,2610.00
2018-05-13T07:54:16.174Z,2655.00
2018-05-13T07:55:16.161Z,2756.25
2018-05-13T07:56:16.149Z,2643.75
2018-05-13T07:57:16.745Z,2542.50
2018-05-13T07:58:16.323Z,2638.13
2018-05-13T07:59:16.138Z,2677.50
2018-05-13T08:00:16.300Z,2722.50
2018-05-13T08:01:16.283Z,2790.00
2018-05-13T08:02:16.072Z,2677.50
2018-05-13T08:03:58.420Z,2632.50
2018-05-13T08:04:58.203Z,2688.75
2018-05-13T08:05:58.199Z,2745.00
2018-05-13T08:06:58.185Z,2784.38
2018-05-13T08:07:58.166Z,2818.13
2018-05-13T08:09:00.773Z,2694.38
2018-05-13T08:09:58.342Z,2716.88
2018-05-13T08:10:58.127Z,2795.63
2018-05-13T08:11:58.115Z,2795.63
2018-05-13T08:12:58.305Z,2885.63
2018-05-13T08:13:58.337Z,2863.13
2018-05-13T08:14:58.281Z,2880.00
2018-05-13T08:15:58.268Z,2705.63
2018-05-13T08:16:58.055Z,2700.00
2018-05-13T08:17:58.042Z,2761.88
2018-05-13T08:18:58.033Z,2756.25
2018-05-13T08:19:58.020Z,2835.00
2018-05-13T08:20:58.007Z,2767.50
2018-05-13T08:21:58.001Z,2818.13
2018-05-13T08:22:57.993Z,2835.00
2018-05-13T08:23:57.973Z,2835.00
2018-05-13T08:24:57.961Z,2936.25
2018-05-13T08:25:57.953Z,2986.88
2018-05-13T08:26:57.939Z,2947.50
2018-05-13T08:27:57.928Z,2941.88
2018-05-13T08:28:57.916Z,2936.25
2018-05-13T08:29:58.106Z,2891.25
2018-05-13T08:30:57.895Z,2863.13
2018-05-13T08:31:57.883Z,2851.88
2018-05-13T08:32:57.875Z,2941.88
2018-05-13T08:33:57.861Z,2902.50
2018-05-13T08:34:57.855Z,2958.75
2018-05-13T08:35:57.844Z,3015.00
2018-05-13T08:36:57.827Z,2958.75
2018-05-13T08:37:57.816Z,2913.75
2018-05-13T08:38:57.806Z,2880.00
2018-05-13T08:39:57.796Z,2958.75
2018-05-13T08:40:57.785Z,3166.88
2018-05-13T08:41:57.799Z,3082.50
2018-05-13T08:42:57.762Z,3060.00
2018-05-13T08:43:57.752Z,3127.50
2018-05-13T08:44:57.741Z,3155.63
2018-05-13T08:45:57.730Z,3121.88
2018-05-13T08:46:57.719Z,3133.13
2018-05-13T08:47:57.711Z,3195.00
2018-05-13T08:48:57.698Z,3065.63
2018-05-13T08:49:57.694Z,3054.38
2018-05-13T08:50:57.678Z,3189.38
2018-05-13T08:51:57.667Z,3071.25
2018-05-13T08:52:57.659Z,3076.88
2018-05-13T08:53:57.761Z,3217.50
2018-05-13T08:54:57.646Z,3211.88
2018-05-13T08:55:57.633Z,3223.13
2018-05-13T08:56:57.613Z,3228.75
2018-05-13T08:57:57.606Z,3268.13
2018-05-13T08:58:57.592Z,3273.75
2018-05-13T08:59:57.583Z,3330.00
2018-05-13T09:00:57.573Z,3307.50
2018-05-13T09:01:57.560Z,3166.88
2018-05-13T09:02:57.550Z,3301.88
2018-05-13T09:03:57.540Z,3144.38
2018-05-13T09:04:57.529Z,3217.50
2018-05-13T09:05:57.520Z,3346.88
2018-05-13T09:06:57.508Z,3211.88
2018-05-13T09:07:57.498Z,3290.63
2018-05-13T09:08:57.486Z,3324.38
2018-05-13T09:09:57.481Z,3324.38
2018-05-13T09:10:57.467Z,3279.38
2018-05-13T09:11:57.457Z,3375.00
2018-05-13T09:12:57.444Z,3408.75
2018-05-13T09:13:57.433Z,3313.13
2018-05-13T09:14:57.424Z,3420.00
2018-05-13T09:15:57.416Z,3318.75
2018-05-13T09:16:57.401Z,3313.13
2018-05-13T09:17:57.397Z,3341.25
2018-05-13T09:18:57.381Z,3189.38
2018-05-13T09:19:57.373Z,3290.63
2018-05-13T09:20:57.479Z,3341.25
2018-05-13T09:21:57.351Z,3251.25
2018-05-13T09:22:57.340Z,3290.63
2018-05-13T09:23:57.330Z,3403.13
2018-05-13T09:24:57.319Z,3301.88
2018-05-13T09:25:57.313Z,3256.88
2018-05-13T09:26:57.299Z,3324.38
2018-05-13T09:27:57.290Z,3358.13
2018-05-13T09:28:57.279Z,3375.00
2018-05-13T09:29:57.281Z,3223.13
2018-05-13T09:30:57.260Z,3144.38
2018-05-13T09:31:57.250Z,3172.50
2018-05-13T09:32:57.267Z,3296.25
2018-05-13T09:33:57.230Z,3391.88
2018-05-13T09:34:57.222Z,3639.38
2018-05-13T09:35:57.211Z,3600.00
2018-05-13T09:36:57.203Z,3538.13
2018-05-13T09:37:57.200Z,3543.75
2018-05-13T09:38:57.185Z,3442.50
2018-05-13T09:39:57.175Z,3560.63
2018-05-13T09:40:57.163Z,3645.00
2018-05-13T09:41:57.156Z,3481.88
2018-05-13T09:42:57.145Z,3279.38
2018-05-13T09:43:57.134Z,3110.63
2018-05-13T09:44:57.150Z,3363.75
2018-05-13T09:45:57.191Z,3650.63
2018-05-13T09:46:57.106Z,3735.00
2018-05-13T09:47:57.094Z,3740.63
2018-05-13T09:48:57.085Z,3571.88
2018-05-13T09:49:57.075Z,3611.25
2018-05-13T09:50:57.065Z,3712.50
2018-05-13T09:51:57.056Z,3690.00
2018-05-13T09:52:57.045Z,3768.75
2018-05-13T09:53:57.036Z,3746.25
2018-05-13T09:54:57.029Z,3560.63
2018-05-13T09:55:57.024Z,3695.63
2018-05-13T09:56:57.007Z,3920.63
2018-05-13T09:57:57.000Z,3763.13
2018-05-13T09:58:56.988Z,3661.88
2018-05-13T09:59:56.979Z,3611.25
2018-05-13T10:00:56.974Z,3571.88
2018-05-13T10:01:56.960Z,3706.88
2018-05-13T10:02:56.951Z,3808.13
2018-05-13T10:03:57.019Z,3858.75
2018-05-13T10:04:56.931Z,3886.88
2018-05-13T10:05:56.922Z,3706.88
2018-05-13T10:06:56.913Z,3785.63
2018-05-13T10:07:56.908Z,3903.75
2018-05-13T10:08:56.894Z,3808.13
2018-05-13T10:09:56.887Z,3673.13
2018-05-13T10:10:56.876Z,3841.88
2018-05-13T10:11:56.867Z,3667.50
2018-05-13T10:12:56.857Z,3768.75
2018-05-13T10:13:56.853Z,3780.00
2018-05-13T10:14:56.839Z,3650.63
2018-05-13T10:15:56.830Z,3706.88
2018-05-13T10:16:56.824Z,3813.75
2018-05-13T10:17:56.810Z,3791.25
2018-05-13T10:18:56.801Z,3808.13
2018-05-13T10:19:56.792Z,3639.38
2018-05-13T10:20:57.084Z,3931.88
2018-05-13T10:21:56.771Z,3920.63
2018-05-13T10:22:56.767Z,3825.00
2018-05-13T10:23:56.757Z,3701.25
2018-05-13T10:24:56.743Z,3723.75
2018-05-13T10:25:56.742Z,3915.00
2018-05-13T10:26:56.724Z,4072.50
2018-05-13T10:27:56.716Z,3920.63
2018-05-13T10:28:56.705Z,3898.13
2018-05-13T10:29:56.696Z,3858.75
2018-05-13T10:30:56.696Z,3943.13
2018-05-13T10:31:56.684Z,4038.75
2018-05-13T10:32:56.669Z,4055.63
2018-05-13T10:33:56.661Z,4095.00
2018-05-13T10:34:56.653Z,4021.88
2018-05-13T10:35:56.649Z,3976.88
2018-05-13T10:36:56.636Z,4066.88
2018-05-13T10:37:56.625Z,4010.63
2018-05-13T10:38:56.619Z,4128.75
2018-05-13T10:39:56.609Z,3937.50
2018-05-13T10:40:56.602Z,3864.38
2018-05-13T10:41:56.591Z,3960.00
2018-05-13T10:42:56.584Z,4005.00
2018-05-13T10:43:56.574Z,4072.50
2018-05-13T10:44:56.564Z,4185.00
2018-05-13T10:45:56.557Z,4038.75
2018-05-13T10:46:56.547Z,3931.88
2018-05-13T10:47:56.538Z,3982.50
2018-05-13T10:48:56.529Z,4140.00
2018-05-13T10:49:56.521Z,4083.75
2018-05-13T10:50:56.512Z,4078.13
2018-05-13T10:51:56.503Z,4066.88
2018-05-13T10:52:56.494Z,3982.50
2018-05-13T10:53:56.485Z,4140.00
2018-05-13T10:54:56.479Z,4145.63
2018-05-13T10:55:56.469Z,4033.13
2018-05-13T10:56:56.465Z,3971.25
2018-05-13T10:57:56.455Z,4016.25
2018-05-13T10:58:56.444Z,4089.38
2018-05-13T10:59:56.435Z,4162.50
2018-05-13T11:00:56.429Z,4027.50
2018-05-13T11:01:56.417Z,4066.88
2018-05-13T11:02:56.417Z,4173.75
2018-05-13T11:03:56.406Z,4241.25
2018-05-13T11:04:56.391Z,4044.38
2018-05-13T11:05:56.390Z,4162.50
2018-05-13T11:06:56.375Z,4106.25
2018-05-13T11:07:56.366Z,4128.75
2018-05-13T11:08:56.363Z,4263.75
2018-05-13T11:09:56.348Z,4168.13
2018-05-13T11:10:56.340Z,4095.00
2018-05-13T11:11:56.332Z,4179.38
2018-05-13T11:12:56.322Z,4078.13
2018-05-13T11:13:56.315Z,4173.75
2018-05-13T11:14:56.306Z,4111.88
2018-05-13T11:15:56.298Z,3819.38
2018-05-13T11:16:56.289Z,3971.25
2018-05-13T11:17:56.282Z,4117.50
2018-05-13T11:18:56.272Z,4072.50
2018-05-13T11:19:56.353Z,4179.38
2018-05-13T11:20:56.255Z,4331.25
2018-05-13T11:21:56.246Z,4213.13
2018-05-13T11:22:56.237Z,4117.50
2018-05-13T11:23:56.231Z,3825.00
2018-05-13T11:24:56.220Z,3926.25
2018-05-13T11:25:56.218Z,4010.63
2018-05-13T11:26:56.277Z,4145.63
2018-05-13T11:27:56.197Z,4190.63
2018-05-13T11:28:56.188Z,4173.75
2018-05-13T11:29:56.184Z,4291.88
2018-05-13T11:30:56.167Z,4275.00
2018-05-13T11:31:56.159Z,3948.75
2018-05-13T11:32:56.149Z,3853.13
2018-05-13T11:33:56.151Z,3380.63
2018-05-13T11:34:56.134Z,4005.00
2018-05-13T11:35:56.124Z,1569.38
2018-05-13T11:36:56.114Z,4263.75
2018-05-13T11:37:56.105Z,3960.00
2018-05-13T11:38:56.097Z,3751.88
2018-05-13T11:39:56.131Z,4134.38
2018-05-13T11:40:56.079Z,4083.75
2018-05-13T11:41:56.070Z,3948.75
2018-05-13T11:42:56.067Z,3943.13
2018-05-13T11:43:56.052Z,4106.25
2018-05-13T11:44:56.042Z,4162.50
2018-05-13T11:45:56.040Z,2441.25
2018-05-13T11:46:56.025Z,3819.38
2018-05-13T11:47:56.018Z,1800.00
2018-05-13T11:48:56.006Z,1681.88
2018-05-13T11:49:56.003Z,3982.50
2018-05-13T11:50:55.988Z,1991.25
2018-05-13T11:51:55.979Z,1479.38
2018-05-13T11:52:55.969Z,1552.50
2018-05-13T11:53:55.962Z,4308.75
2018-05-13T11:54:55.950Z,4224.38
2018-05-13T11:55:55.940Z,4308.75
2018-05-13T11:56:55.930Z,4297.50
2018-05-13T11:57:55.919Z,4410.00
2018-05-13T11:58:55.920Z,4325.63
2018-05-13T11:59:55.902Z,1839.38
2018-05-13T12:00:55.890Z,4348.13
2018-05-13T12:01:56.130Z,4224.38
2018-05-13T12:02:55.880Z,4078.13
2018-05-13T12:03:55.861Z,3251.25
2018-05-13T12:04:55.852Z,1636.88
2018-05-13T12:05:55.842Z,1501.88
2018-05-13T12:06:55.832Z,3931.88
2018-05-13T12:07:55.823Z,3853.13
2018-05-13T12:08:55.812Z,3999.38
2018-05-13T12:09:55.802Z,4190.63
2018-05-13T12:10:55.792Z,4353.75
2018-05-13T12:11:55.786Z,4291.88
2018-05-13T12:12:55.778Z,4516.88
2018-05-13T12:13:56.114Z,4398.75
2018-05-13T12:14:55.754Z,4072.50
2018-05-13T12:15:55.745Z,1715.63
2018-05-13T12:16:55.741Z,1760.63
2018-05-13T12:17:55.726Z,4646.25
2018-05-13T12:18:55.721Z,4753.13
2018-05-13T12:19:55.710Z,4618.13
2018-05-13T12:20:55.766Z,4606.88
2018-05-13T12:21:55.693Z,4426.88
2018-05-13T12:22:55.681Z,4224.38
2018-05-13T12:23:55.672Z,4336.88
2018-05-13T12:24:55.662Z,4201.88
2018-05-13T12:25:55.655Z,4432.50
2018-05-13T12:26:55.649Z,4725.00
2018-05-13T12:27:55.637Z,4511.25
2018-05-13T12:28:55.638Z,4376.25
2018-05-13T12:29:55.622Z,4511.25